Time;durP1;ratioP1;P1;durP2;ratioP2;P2;SDS_P1;SDS_P2;PMS_P1;PMS_P2;Temp;Humidity;BMP_temperature;BMP_pressure;BME280_temperature;BME280_humidity;BME280_pressure;Samples;Min_cycle;Max_cycle;Signal;HPM_P1;HPM_P2
2024/03/24 00:00:39;;;;;;;5.30;1.90;;;;;;;4.43;71.94;92108.63;2071431;69;20159;-73
2024/03/24 00:03:05;;;;;;;3.95;1.80;;;;;;;4.54;72.94;92101.75;2067737;69;20171;-76
2024/03/24 00:05:31;;;;;;;4.95;1.80;;;;;;;4.57;72.85;92095.00;2071126;69;20620;-75
2024/03/24 00:07:56;;;;;;;2.65;1.60;;;;;;;4.63;72.60;92097.47;2071311;69;20156;-74
2024/03/24 00:10:22;;;;;;;4.03;2.00;;;;;;;4.61;72.73;92097.34;2071264;69;20152;-75
2024/03/24 00:12:48;;;;;;;2.65;1.42;;;;;;;4.64;72.62;92085.03;2071134;69;20147;-76
2024/03/24 00:15:17;;;;;;;3.08;1.70;;;;;;;4.49;73.30;92088.84;2071118;69;20172;-76
2024/03/24 00:17:43;;;;;;;2.22;1.48;;;;;;;4.55;72.91;92098.38;2070920;69;20211;-75
2024/03/24 00:20:10;;;;;;;3.15;1.73;;;;;;;4.48;72.72;92084.59;2071423;69;20225;-74
2024/03/24 00:22:35;;;;;;;3.35;1.45;;;;;;;4.54;72.58;92096.91;2072934;69;20657;-74
2024/03/24 00:25:01;;;;;;;4.40;1.50;;;;;;;4.45;72.89;92088.56;2068300;69;20136;-74
2024/03/24 00:27:26;;;;;;;2.15;1.50;;;;;;;4.54;72.36;92091.34;2071363;69;20604;-75
2024/03/24 00:29:52;;;;;;;2.70;1.42;;;;;;;4.50;72.20;92087.53;2071214;69;20152;-75
2024/03/24 00:32:17;;;;;;;3.80;1.60;;;;;;;4.63;72.22;92081.50;2071103;69;20148;-75
2024/03/24 00:34:45;;;;;;;3.80;1.40;;;;;;;4.67;71.00;92073.41;2071499;69;20235;-75
2024/03/24 00:37:11;;;;;;;4.82;2.20;;;;;;;4.54;71.73;92071.84;2071050;69;20168;-75
2024/03/24 00:39:37;;;;;;;3.00;1.77;;;;;;;4.56;72.62;92071.97;2071032;69;20220;-75
2024/03/24 00:42:02;;;;;;;3.25;1.70;;;;;;;4.46;73.39;92062.88;2067933;69;20129;-73
2024/03/24 00:44:28;;;;;;;6.00;1.73;;;;;;;4.24;73.92;92052.91;2071166;69;20664;-75
2024/03/24 00:50:53;;;;;;;3.83;1.38;;;;;;;4.32;73.29;92051.44;2070665;69;20163;-74
2024/03/24 00:53:18;;;;;;;3.35;1.50;;;;;;;4.34;72.72;92054.34;2066472;69;20188;-76
2024/03/24 00:55:44;;;;;;;4.40;1.40;;;;;;;4.37;72.94;92054.53;2071091;69;20136;-75
2024/03/24 00:58:10;;;;;;;2.35;1.40;;;;;;;4.30;72.75;92056.84;2071120;69;20148;-75
2024/03/24 01:00:35;;;;;;;2.55;1.25;;;;;;;4.35;73.02;92049.50;2067539;69;20184;-72
2024/03/24 01:03:01;;;;;;;5.25;1.42;;;;;;;4.30;73.39;92045.69;2071045;69;20523;-73
2024/03/24 01:05:26;;;;;;;5.30;1.50;;;;;;;4.18;73.01;92041.31;2071725;69;20148;-73
2024/03/24 01:07:52;;;;;;;3.55;1.20;;;;;;;4.16;73.25;92039.09;2071752;69;20187;-75
2024/03/24 01:10:18;;;;;;;2.15;1.30;;;;;;;4.07;73.37;92020.31;2071800;69;20148;-73
2024/03/24 01:12:49;;;;;;;3.20;1.38;;;;;;;4.17;73.40;92029.44;2073157;69;20596;-73
2024/03/24 01:15:15;;;;;;;1.67;1.20;;;;;;;4.14;72.80;92036.19;2071753;69;20210;-73
2024/03/24 01:17:45;;;;;;;4.30;1.33;;;;;;;4.12;73.14;92032.50;2071632;69;20163;-73
2024/03/24 01:20:14;;;;;;;5.65;1.33;;;;;;;4.13;73.21;92033.97;2071660;69;20255;-75
2024/03/24 01:22:41;;;;;;;2.47;1.40;;;;;;;4.15;73.52;92018.13;2071784;69;20140;-76
2024/03/24 01:25:07;;;;;;;3.38;1.40;;;;;;;4.19;73.62;92026.06;2071911;69;20152;-73
2024/03/24 01:27:34;;;;;;;4.25;1.67;;;;;;;4.19;73.69;92028.84;2068351;69;20152;-78
2024/03/24 01:29:59;;;;;;;2.85;1.30;;;;;;;4.31;72.68;92038.09;2071708;69;20565;-74
2024/03/24 01:32:25;;;;;;;2.60;1.48;;;;;;;4.29;72.42;92041.44;2071681;69;20175;-76
2024/03/24 01:38:38;;;;;;;1.98;1.23;;;;;;;4.16;73.83;92044.66;2071640;69;20120;-75
2024/03/24 01:41:03;;;;;;;4.50;1.50;;;;;;;4.25;73.10;92023.72;2071663;69;20542;-75
2024/03/24 01:43:29;;;;;;;3.53;1.42;;;;;;;4.24;73.03;92022.97;2071656;69;20140;-73
2024/03/24 01:45:55;;;;;;;4.63;1.30;;;;;;;4.26;72.93;92025.94;2071703;69;20263;-74
2024/03/24 01:48:20;;;;;;;3.17;1.30;;;;;;;4.26;73.38;92009.22;2071661;69;20143;-74
2024/03/24 01:50:47;;;;;;;4.78;1.63;;;;;;;4.30;73.78;92005.97;2071588;69;20148;-75
2024/03/24 01:53:13;;;;;;;3.90;1.73;;;;;;;4.23;73.61;91979.00;2068349;69;20151;-75
2024/03/24 01:55:39;;;;;;;2.58;1.70;;;;;;;4.34;72.41;91970.03;2070005;69;20575;-77
2024/03/24 01:58:09;;;;;;;3.75;1.80;;;;;;;4.16;73.78;91952.75;2068362;69;20136;-77
2024/03/24 02:00:34;;;;;;;4.82;1.42;;;;;;;4.06;73.78;91941.59;2068094;69;20221;-76
2024/03/24 02:03:00;;;;;;;4.05;1.83;;;;;;;3.81;74.89;91930.78;2068261;69;20148;-74
2024/03/24 02:05:27;;;;;;;1.60;1.40;;;;;;;3.78;74.91;91915.22;2071722;69;20256;-74
2024/03/24 02:07:53;;;;;;;1.98;1.30;;;;;;;3.83;74.45;91897.50;2071645;69;20253;-76
2024/03/24 02:10:23;;;;;;;1.30;0.90;;;;;;;3.87;73.75;91897.06;2071745;69;20166;-74
2024/03/24 02:12:49;;;;;;;2.10;1.08;;;;;;;3.01;74.30;91898.44;2071627;69;20599;-76
2024/03/24 02:15:15;;;;;;;2.58;1.20;;;;;;;3.33;74.56;91896.59;2071464;69;20722;-75
2024/03/24 02:21:28;;;;;;;3.05;1.27;;;;;;;3.70;72.57;91892.38;2071424;69;20185;-76
2024/03/24 02:23:54;;;;;;;1.88;1.38;;;;;;;3.66;72.02;91897.63;2071741;69;20160;-74
2024/03/24 02:26:20;;;;;;;2.60;1.10;;;;;;;3.70;72.54;91891.63;2071548;69;20156;-74
2024/03/24 02:28:46;;;;;;;3.50;1.10;;;;;;;3.68;72.43;91891.50;2071721;69;20175;-74
2024/03/24 02:31:11;;;;;;;2.33;1.13;;;;;;;3.55;73.15;91862.78;2071761;69;20152;-74
2024/03/24 02:33:37;;;;;;;2.65;1.23;;;;;;;3.68;71.73;91869.97;2068073;69;20233;-74
2024/03/24 02:36:03;;;;;;;3.53;1.30;;;;;;;2.98;75.45;91871.81;2071211;69;20187;-74
2024/03/24 02:38:29;;;;;;;2.35;1.27;;;;;;;2.98;76.44;91869.75;2071629;69;20136;-74
2024/03/24 02:40:54;;;;;;;2.17;1.30;;;;;;;3.11;75.72;91876.94;2071438;69;20160;-76
2024/03/24 02:43:20;;;;;;;3.00;1.30;;;;;;;3.33;75.18;91875.06;2071400;69;20147;-76
2024/03/24 02:45:55;;;;;;;3.50;1.50;;;;;;;3.48;73.89;91883.16;2071221;69;20140;-77
2024/03/24 02:48:20;;;;;;;2.55;1.40;;;;;;;3.49;74.28;91890.19;2071356;69;20176;-77
2024/03/24 02:50:48;;;;;;;1.85;1.45;;;;;;;3.50;74.50;91883.28;2071592;69;20151;-77
2024/03/24 02:53:14;;;;;;;3.47;1.50;;;;;;;3.54;74.01;91875.25;2071572;69;20144;-75
2024/03/24 02:55:49;;;;;;;2.03;1.33;;;;;;;3.55;73.90;91878.75;2068080;69;20133;-76
2024/03/24 02:58:15;;;;;;;3.35;1.27;;;;;;;3.58;73.39;91872.03;2071560;69;20512;-77
2024/03/24 03:00:42;;;;;;;4.05;1.48;;;;;;;3.59;73.39;91856.06;2070259;69;20136;-76
2024/03/24 03:03:08;;;;;;;4.13;1.30;;;;;;;3.65;73.42;91864.84;2068021;69;20523;-75
2024/03/24 03:05:34;;;;;;;2.35;1.25;;;;;;;3.68;72.75;91863.66;2071032;69;20156;-76
2024/03/24 03:08:02;;;;;;;2.38;1.20;;;;;;;3.67;72.99;91868.50;2071455;69;20152;-76
2024/03/24 03:10:32;;;;;;;2.67;1.20;;;;;;;3.63;73.27;91859.13;2071501;69;20136;-75
2024/03/24 03:12:58;;;;;;;2.92;1.27;;;;;;;3.78;72.36;91845.63;2071688;69;20228;-75
2024/03/24 03:15:25;;;;;;;2.58;1.35;;;;;;;3.70;73.68;91844.31;2068151;69;20128;-76
2024/03/24 03:21:38;;;;;;;1.83;1.15;;;;;;;3.72;73.89;91831.28;2071547;69;20266;-76
2024/03/24 03:24:05;;;;;;;4.13;1.20;;;;;;;3.86;73.27;91828.06;2071516;69;20669;-74
2024/03/24 03:26:30;;;;;;;3.25;1.75;;;;;;;3.89;73.46;91835.94;2065414;69;20188;-76
2024/03/24 03:28:56;;;;;;;4.70;1.30;;;;;;;3.95;72.96;91839.16;2071487;69;20136;-75
2024/03/24 03:31:22;;;;;;;1.42;1.20;;;;;;;3.85;73.58;91826.56;2071602;69;20140;-75
2024/03/24 03:33:48;;;;;;;1.40;1.17;;;;;;;3.98;73.07;91826.09;2071263;69;20178;-76
2024/03/24 03:36:13;;;;;;;2.20;1.27;;;;;;;4.07;72.76;91826.09;2071544;69;20152;-76
2024/03/24 03:38:39;;;;;;;2.72;1.20;;;;;;;3.71;73.84;91838.19;2068165;69;20140;-76
2024/03/24 03:41:05;;;;;;;2.92;1.50;;;;;;;3.41;75.05;91792.19;2071473;69;20151;-76
2024/03/24 03:47:18;;;;;;;2.58;1.20;;;;;;;3.85;74.62;91834.91;2071407;69;20615;-74
2024/03/24 03:49:54;;;;;;;3.65;1.40;;;;;;;3.75;74.65;91813.41;2071407;69;20196;-74
2024/03/24 03:52:29;;;;;;;2.25;1.40;;;;;;;3.95;74.67;91824.53;2071352;69;20235;-77
2024/03/24 03:55:00;;;;;;;2.67;1.30;;;;;;;4.05;72.63;91820.38;2071510;69;20144;-76
2024/03/24 03:57:28;;;;;;;2.45;1.65;;;;;;;3.77;74.27;91819.13;2071339;69;20156;-77
2024/03/24 03:59:54;;;;;;;2.70;1.40;;;;;;;3.83;73.58;91807.69;2071433;69;20228;-75
2024/03/24 04:02:21;;;;;;;2.08;1.50;;;;;;;3.87;73.67;91813.53;2071087;69;20188;-77
2024/03/24 04:08:34;;;;;;;3.55;1.50;;;;;;;3.95;73.11;91811.31;2071518;69;20127;-73
2024/03/24 04:11:00;;;;;;;3.78;1.40;;;;;;;3.98;73.97;91803.81;2071060;69;20596;-75
2024/03/24 04:13:25;;;;;;;2.38;1.42;;;;;;;4.05;73.79;91802.94;2067969;69;20160;-74
2024/03/24 04:15:51;;;;;;;1.75;1.20;;;;;;;4.11;73.29;91799.84;2071354;69;20149;-75
2024/03/24 04:18:17;;;;;;;2.13;1.20;;;;;;;4.15;72.13;91795.28;2071374;69;20599;-77
2024/03/24 04:20:43;;;;;;;2.65;1.50;;;;;;;4.19;71.24;91803.94;2071186;69;20150;-74
2024/03/24 04:23:08;;;;;;;4.57;1.40;;;;;;;4.15;72.82;91797.34;2071376;69;20140;-75
2024/03/24 04:25:34;;;;;;;3.47;1.38;;;;;;;4.21;72.11;91790.13;2071399;69;20140;-75
2024/03/24 04:27:59;;;;;;;1.73;1.20;;;;;;;4.18;72.87;91794.13;2071260;69;20149;-74
2024/03/24 04:30:26;;;;;;;2.50;1.15;;;;;;;4.15;72.73;91800.13;2071373;69;20259;-76
2024/03/24 04:32:51;;;;;;;3.70;1.33;;;;;;;4.18;73.07;91804.53;2071250;69;20166;-74
2024/03/24 04:35:17;;;;;;;3.13;1.60;;;;;;;4.18;73.32;91807.31;2071337;69;20600;-75
2024/03/24 04:37:43;;;;;;;2.20;1.48;;;;;;;4.20;72.71;91796.28;2071329;69;20180;-76
2024/03/24 04:40:09;;;;;;;2.28;1.40;;;;;;;3.98;73.26;91798.25;2068731;69;20702;-77
2024/03/24 04:42:35;;;;;;;1.92;1.38;;;;;;;4.02;73.41;91809.69;2068769;69;20239;-75
2024/03/24 04:45:01;;;;;;;2.33;1.90;;;;;;;4.20;72.31;91799.09;2071880;69;20206;-75
2024/03/24 04:47:30;;;;;;;3.33;2.10;;;;;;;3.93;74.22;91794.47;2068286;69;20155;-73
2024/03/24 04:49:56;;;;;;;7.22;3.05;;;;;;;4.03;73.00;91789.63;2071820;69;20167;-76
2024/03/24 04:52:23;;;;;;;3.30;1.60;;;;;;;4.18;73.08;91810.09;2071762;69;20280;-77
2024/03/24 04:54:48;;;;;;;5.97;2.40;;;;;;;4.12;73.53;91804.81;2068506;69;20204;-75
2024/03/24 04:57:14;;;;;;;6.82;2.90;;;;;;;3.85;74.41;91812.66;2071735;69;20156;-77
2024/03/24 04:59:40;;;;;;;6.32;2.35;;;;;;;4.13;71.34;91809.09;2071971;69;20619;-74
2024/03/24 05:02:05;;;;;;;4.45;2.10;;;;;;;4.11;73.49;91799.84;2071831;69;20160;-76
2024/03/24 05:04:31;;;;;;;3.42;2.40;;;;;;;3.97;73.74;91791.22;2071744;69;20574;-76
2024/03/24 05:06:59;;;;;;;4.28;2.10;;;;;;;3.90;74.34;91789.38;2071788;69;20565;-77
2024/03/24 05:09:25;;;;;;;4.22;2.40;;;;;;;4.08;73.85;91780.22;2071831;69;20160;-76
2024/03/24 05:11:51;;;;;;;4.15;2.13;;;;;;;4.21;73.25;91783.81;2068595;69;20176;-75
2024/03/24 05:14:17;;;;;;;4.20;2.50;;;;;;;4.27;73.35;91798.19;2070057;69;20469;-75
2024/03/24 05:16:42;;;;;;;2.60;2.10;;;;;;;4.31;72.83;91793.63;2068006;69;20446;-75
2024/03/24 05:19:09;;;;;;;3.83;1.90;;;;;;;4.30;72.32;91794.19;2071857;69;20236;-77
2024/03/24 05:21:37;;;;;;;25.85;6.05;;;;;;;4.05;74.09;91809.25;2068455;69;20588;-76
2024/03/24 05:24:07;;;;;;;39.50;10.48;;;;;;;4.21;73.65;91797.75;2071744;69;20213;-76
2024/03/24 05:26:33;;;;;;;50.40;11.80;;;;;;;3.79;74.30;91785.13;2071865;69;20179;-74
2024/03/24 05:29:02;;;;;;;41.42;10.13;;;;;;;4.00;74.40;91782.44;2071831;69;20209;-75
2024/03/24 05:31:27;;;;;;;37.90;9.32;;;;;;;4.19;74.40;91783.69;2071555;69;20149;-75
2024/03/24 05:33:53;;;;;;;32.13;6.70;;;;;;;4.26;73.47;91786.31;2071498;69;20144;-73
2024/03/24 05:36:18;;;;;;;28.55;6.78;;;;;;;4.31;72.61;91792.91;2071908;69;20160;-76
2024/03/24 05:38:44;;;;;;;28.73;7.32;;;;;;;4.20;72.50;91783.09;2072889;69;20136;-77
2024/03/24 05:41:10;;;;;;;38.92;15.65;;;;;;;4.12;73.95;91784.59;2072068;69;20645;-76
2024/03/24 05:43:36;;;;;;;13.13;4.38;;;;;;;4.25;73.68;91804.34;2071686;69;20195;-76
2024/03/24 05:46:04;;;;;;;5.00;2.08;;;;;;;3.88;73.97;91797.56;2071605;69;20148;-76
2024/03/24 05:48:29;;;;;;;6.63;2.50;;;;;;;4.26;72.47;91800.25;2071575;69;20152;-77
2024/03/24 05:51:03;;;;;;;5.20;2.40;;;;;;;4.22;72.82;91802.03;2071461;69;20627;-76
2024/03/24 05:53:29;;;;;;;8.88;3.28;;;;;;;4.36;72.40;91803.00;2071712;69;20140;-77
2024/03/24 05:56:02;;;;;;;6.13;3.10;;;;;;;4.24;72.49;91807.72;2068398;69;20151;-76
2024/03/24 05:58:28;;;;;;;;;;;;;;;4.32;72.71;91817.38;2065729;69;20155;-74
2024/03/24 06:00:54;;;;;;;7.60;3.88;;;;;;;4.31;72.29;91815.19;2071653;69;20064;-75
2024/03/24 06:03:20;;;;;;;7.70;2.65;;;;;;;3.36;76.00;91815.50;2071501;69;20145;-76
2024/03/24 06:09:36;;;;;;;4.00;2.35;;;;;;;3.97;73.24;91825.38;2071794;69;20158;-77
2024/03/24 06:12:02;;;;;;;5.25;2.38;;;;;;;4.24;72.40;91816.81;2068752;69;20151;-76
2024/03/24 06:14:27;;;;;;;3.92;2.58;;;;;;;4.35;71.92;91823.81;2069340;69;20140;-73
2024/03/24 06:16:54;;;;;;;3.97;2.22;;;;;;;4.39;71.70;91821.31;2069139;69;20144;-76
2024/03/24 06:19:19;;;;;;;4.22;2.30;;;;;;;4.29;71.31;91828.97;2072292;69;20261;-73
2024/03/24 06:21:45;;;;;;;2.35;1.80;;;;;;;4.22;71.54;91833.41;2070553;69;20172;-72
2024/03/24 06:24:11;;;;;;;5.15;1.92;;;;;;;4.40;70.50;91831.16;2068430;69;20140;-74
2024/03/24 06:26:36;;;;;;;5.05;1.73;;;;;;;4.48;70.92;91840.03;2071823;69;20140;-74
2024/03/24 06:29:02;;;;;;;5.07;2.13;;;;;;;4.52;71.08;91848.69;2071815;69;20148;-73
2024/03/24 06:31:29;;;;;;;4.00;2.20;;;;;;;4.54;72.14;91840.47;2071705;69;20155;-74
2024/03/24 06:33:57;;;;;;;2.55;2.03;;;;;;;4.56;70.56;91846.19;2071228;69;20144;-75
2024/03/24 06:36:24;;;;;;;4.25;2.65;;;;;;;3.64;74.09;91838.31;2071446;69;20136;-75
2024/03/24 06:38:50;;;;;;;5.18;2.65;;;;;;;3.21;77.45;91858.25;2071699;69;20175;-76
2024/03/24 06:41:16;;;;;;;5.63;2.83;;;;;;;3.71;75.67;91865.25;2071791;69;20631;-75
2024/03/24 06:43:42;;;;;;;5.00;2.55;;;;;;;4.10;74.57;91868.03;2071609;69;20155;-74
2024/03/24 06:46:09;;;;;;;6.75;2.63;;;;;;;4.01;74.20;91855.56;2071656;69;20132;-75
2024/03/24 06:48:34;;;;;;;8.02;4.88;;;;;;;4.22;73.55;91854.97;2071611;69;20144;-74
2024/03/24 06:51:00;;;;;;;5.57;4.00;;;;;;;4.15;73.31;91851.00;2071475;69;20260;-75
2024/03/24 06:53:26;;;;;;;5.50;2.60;;;;;;;4.20;73.91;91852.75;2071648;69;20233;-73
2024/03/24 06:55:52;;;;;;;7.35;3.20;;;;;;;4.49;72.98;91852.69;2071648;69;20516;-73
2024/03/24 06:58:18;;;;;;;5.43;2.90;;;;;;;4.67;72.52;91858.00;2071771;69;20599;-74
2024/03/24 07:00:44;;;;;;;4.57;2.67;;;;;;;4.85;70.63;91857.19;2071489;69;20151;-73
2024/03/24 07:03:10;;;;;;;5.70;3.08;;;;;;;3.96;74.55;91862.19;2071451;69;20215;-76
2024/03/24 07:05:36;;;;;;;4.93;3.15;;;;;;;4.50;72.70;91876.44;2071516;69;20168;-73
2024/03/24 07:08:01;;;;;;;6.45;2.70;;;;;;;4.18;74.14;91886.03;2068216;69;20458;-74
2024/03/24 07:10:27;;;;;;;6.38;3.10;;;;;;;4.80;72.73;91883.34;2071501;69;20155;-74
2024/03/24 07:12:53;;;;;;;5.03;3.30;;;;;;;4.81;73.50;91881.28;2071483;69;20144;-77
2024/03/24 07:15:19;;;;;;;9.48;5.00;;;;;;;4.66;74.00;91874.00;2068063;69;20243;-78
2024/03/24 07:17:44;;;;;;;9.27;5.00;;;;;;;4.65;73.59;91861.41;2071577;69;20152;-78
2024/03/24 07:20:11;;;;;;;6.30;4.53;;;;;;;4.62;73.26;91847.91;2071559;69;20125;-76
2024/03/24 07:22:36;;;;;;;5.80;3.53;;;;;;;4.98;72.37;91844.06;2071578;69;20159;-75
2024/03/24 07:25:02;;;;;;;8.18;3.92;;;;;;;5.01;70.98;91829.69;2071342;69;20147;-75
2024/03/24 07:27:28;;;;;;;7.88;3.50;;;;;;;5.18;71.21;91827.94;2071279;69;20584;-79
2024/03/24 07:29:53;;;;;;;5.72;3.85;;;;;;;4.92;72.52;91824.16;2071529;69;20152;-76
2024/03/24 07:32:19;;;;;;;7.20;3.90;;;;;;;5.25;70.61;91838.19;2071330;69;20148;-72
2024/03/24 07:34:45;;;;;;;8.30;4.18;;;;;;;5.73;69.84;91848.28;2071458;69;20148;-73
2024/03/24 07:37:10;;;;;;;7.10;3.78;;;;;;;5.55;69.77;91854.16;2071613;69;20144;-78
2024/03/24 07:39:36;;;;;;;6.10;3.40;;;;;;;5.04;71.13;91853.59;2071659;69;20262;-75
2024/03/24 07:42:02;;;;;;;65.03;22.65;;;;;;;4.99;72.07;91859.47;2068130;69;20224;-77
2024/03/24 07:44:28;;;;;;;9.57;4.20;;;;;;;4.52;72.43;91842.38;2071450;69;20524;-76
2024/03/24 07:46:54;;;;;;;9.23;4.63;;;;;;;4.78;73.02;91849.75;2071181;69;20145;-83
2024/03/24 07:49:20;;;;;;;8.75;4.80;;;;;;;5.35;71.48;91850.03;2071597;69;20582;-82
2024/03/24 07:51:45;;;;;;;6.25;3.65;;;;;;;5.14;71.30;91834.00;2071455;69;20517;-83
2024/03/24 07:54:11;;;;;;;5.43;3.70;;;;;;;5.20;70.32;91814.88;2071480;69;20140;-79
2024/03/24 07:56:37;;;;;;;9.07;3.80;;;;;;;5.30;69.29;91809.94;2071569;69;20235;-77
2024/03/24 07:59:03;;;;;;;3.83;2.00;;;;;;;4.77;68.96;91812.06;2071501;69;20147;-76
2024/03/24 08:01:29;;;;;;;3.67;1.80;;;;;;;5.38;67.74;91817.41;2071500;69;20619;-73
2024/03/24 08:03:54;;;;;;;2.22;1.52;;;;;;;6.01;66.17;91802.63;2071477;69;20149;-78
2024/03/24 08:06:20;;;;;;;5.80;1.92;;;;;;;6.19;64.06;91796.72;2068075;69;20155;-75
2024/03/24 08:08:45;;;;;;;2.65;1.70;;;;;;;6.06;63.87;91800.81;2071389;69;20172;-77
2024/03/24 08:11:11;;;;;;;4.35;2.00;;;;;;;5.54;65.07;91791.28;2071215;69;20677;-78
2024/03/24 08:13:37;;;;;;;8.07;4.15;;;;;;;5.49;65.54;91795.13;2071661;69;20151;-76
2024/03/24 08:16:03;;;;;;;5.35;2.22;;;;;;;5.95;65.27;91804.31;2072020;69;20155;-73
2024/03/24 08:18:28;;;;;;;4.20;2.30;;;;;;;6.17;62.79;91813.34;2071807;69;20148;-77
2024/03/24 08:20:54;;;;;;;5.40;3.00;;;;;;;6.07;63.88;91816.97;2072013;69;20159;-75
2024/03/24 08:23:20;;;;;;;4.97;2.50;;;;;;;6.22;65.85;91829.03;2071825;69;20155;-74
2024/03/24 08:25:47;;;;;;;4.97;1.92;;;;;;;6.13;64.57;91832.66;2071706;69;20178;-74
2024/03/24 08:28:13;;;;;;;5.75;1.88;;;;;;;6.58;64.10;91848.06;2071392;69;20139;-77
2024/03/24 08:30:39;;;;;;;4.05;2.30;;;;;;;6.34;65.41;91854.97;2071574;69;20243;-74
2024/03/24 08:33:06;;;;;;;5.57;2.70;;;;;;;5.77;66.99;91859.69;2071734;69;20560;-75
2024/03/24 08:35:32;;;;;;;6.43;2.42;;;;;;;5.74;66.80;91872.81;2071774;69;20636;-75
2024/03/24 08:37:58;;;;;;;6.47;3.50;;;;;;;5.47;68.92;91866.84;2071752;69;20652;-77
2024/03/24 08:40:23;;;;;;;4.55;3.30;;;;;;;5.67;68.15;91879.31;2068159;69;20639;-77
2024/03/24 08:42:49;;;;;;;5.22;2.72;;;;;;;5.50;69.04;91890.78;2068506;69;20222;-79
2024/03/24 08:45:15;;;;;;;3.25;1.98;;;;;;;4.91;69.05;91893.16;2068119;69;20596;-78
2024/03/24 08:47:40;;;;;;;6.47;2.45;;;;;;;5.47;68.51;91900.34;2071812;69;20168;-74
2024/03/24 08:50:07;;;;;;;6.43;2.90;;;;;;;5.43;71.26;91906.38;2071904;69;20489;-76
2024/03/24 08:52:33;;;;;;;3.20;2.05;;;;;;;5.56;70.02;91905.13;2068109;69;20236;-74
2024/03/24 08:55:00;;;;;;;4.88;1.80;;;;;;;5.74;68.69;91911.91;2071185;69;20187;-77
2024/03/24 08:57:26;;;;;;;3.25;2.08;;;;;;;5.17;69.76;91915.78;2071202;69;20148;-75
2024/03/24 08:59:57;;;;;;;3.38;2.38;;;;;;;5.37;70.52;91913.63;2070870;69;20144;-77
2024/03/24 09:02:23;;;;;;;3.88;2.35;;;;;;;4.45;72.27;91905.34;2071114;69;20144;-77
2024/03/24 09:04:55;;;;;;;3.72;2.10;;;;;;;4.43;73.55;91927.47;2071184;69;20604;-76
2024/03/24 09:07:21;;;;;;;4.05;2.60;;;;;;;5.02;72.34;91917.59;2071310;69;20209;-79
2024/03/24 09:09:47;;;;;;;3.22;2.10;;;;;;;5.58;70.87;91925.53;2071741;69;20163;-75
2024/03/24 09:12:13;;;;;;;3.63;2.05;;;;;;;5.91;70.48;91922.09;2071817;69;20159;-77
2024/03/24 09:14:39;;;;;;;4.20;1.85;;;;;;;6.01;69.95;91947.91;2071845;69;20504;-76
2024/03/24 09:17:04;;;;;;;4.38;2.30;;;;;;;5.97;69.35;91944.84;2071695;69;20133;-81
2024/03/24 09:19:30;;;;;;;5.97;2.22;;;;;;;6.10;68.54;91940.78;2072078;69;20202;-82
2024/03/24 09:21:56;;;;;;;4.13;2.28;;;;;;;6.45;67.54;91931.78;2071927;69;20207;-85
2024/03/24 09:24:22;;;;;;;3.90;2.45;;;;;;;6.72;68.22;91928.59;2071806;69;20149;-81
2024/03/24 09:26:50;;;;;;;5.20;2.90;;;;;;;6.83;66.62;91931.41;2071955;69;20229;-75
2024/03/24 09:29:17;;;;;;;6.65;3.10;;;;;;;6.70;68.33;91936.88;2072010;69;20229;-78
2024/03/24 09:31:42;;;;;;;5.43;2.53;;;;;;;6.75;69.99;91938.56;2071791;69;20225;-77
2024/03/24 09:34:08;;;;;;;6.13;2.83;;;;;;;6.41;68.59;91935.06;2071659;69;20575;-80
2024/03/24 09:36:34;;;;;;;6.20;3.45;;;;;;;6.35;69.50;91935.41;2071570;69;20201;-79
2024/03/24 09:38:59;;;;;;;5.22;3.38;;;;;;;6.89;69.94;91931.06;2071856;69;20187;-75
2024/03/24 09:41:28;;;;;;;3.33;2.33;;;;;;;6.55;70.28;91933.19;2072095;69;20148;-78
2024/03/24 09:43:54;;;;;;;4.75;2.45;;;;;;;5.73;72.00;91943.25;2068443;69;20144;-76
2024/03/24 09:46:21;;;;;;;4.90;2.80;;;;;;;5.73;72.50;91940.44;2071783;69;20607;-79
2024/03/24 09:48:52;;;;;;;5.13;2.90;;;;;;;7.16;69.59;91947.41;2071657;69;20167;-75
2024/03/24 09:51:19;;;;;;;4.55;2.25;;;;;;;6.93;67.84;91936.19;2071677;69;20247;-76
2024/03/24 09:53:45;;;;;;;2.38;1.90;;;;;;;6.78;68.80;91938.09;2071819;69;20147;-78
2024/03/24 09:56:10;;;;;;;3.25;2.05;;;;;;;6.72;68.57;91951.69;2071737;69;20178;-78
2024/03/24 09:58:42;;;;;;;4.53;1.83;;;;;;;7.04;67.32;91938.25;2072443;69;20193;-76
2024/03/24 10:01:07;;;;;;;2.85;1.83;;;;;;;7.35;67.80;91938.75;2074466;69;20159;-78
2024/03/24 10:03:34;;;;;;;3.85;1.55;;;;;;;7.76;64.72;91941.16;2071845;69;20152;-77
2024/03/24 10:09:48;;;;;;;2.08;1.42;;;;;;;9.95;60.70;91939.03;2071692;69;20703;-77
2024/03/24 10:12:14;;;;;;;2.25;1.70;;;;;;;8.91;61.45;91939.94;2071525;69;20144;-75
2024/03/24 10:14:40;;;;;;;3.22;1.70;;;;;;;7.53;65.61;91936.31;2071480;69;20681;-75
2024/03/24 10:17:16;;;;;;;2.00;1.63;;;;;;;8.30;63.59;91926.03;2071443;69;20128;-76
2024/03/24 10:19:49;;;;;;;1.60;1.42;;;;;;;9.79;60.96;91927.69;2071421;69;20148;-77
2024/03/24 10:22:15;;;;;;;2.08;1.60;;;;;;;10.16;58.51;91922.53;2071342;69;20148;-78
2024/03/24 10:24:46;;;;;;;2.72;1.23;;;;;;;9.60;60.14;91926.75;2071292;69;20132;-76
2024/03/24 10:27:14;;;;;;;1.70;1.50;;;;;;;9.66;60.14;91926.31;2068232;69;20224;-76
2024/03/24 10:29:40;;;;;;;3.47;1.60;;;;;;;10.75;58.10;91926.78;2071625;69;20570;-76
2024/03/24 10:32:10;;;;;;;2.38;1.27;;;;;;;10.50;55.10;91916.47;2071624;69;20221;-79
2024/03/24 10:34:36;;;;;;;1.92;1.20;;;;;;;10.23;56.49;91914.41;2071627;69;20672;-79
2024/03/24 10:37:02;;;;;;;1.95;1.30;;;;;;;11.21;54.65;91908.50;2068110;69;20282;-79
2024/03/24 10:39:29;;;;;;;1.70;1.10;;;;;;;11.15;52.97;91908.25;2071698;69;20152;-75
2024/03/24 10:45:51;;;;;;;1.88;1.30;;;;;;;11.67;53.42;91900.69;2071542;69;20504;-80
2024/03/24 10:48:21;;;;;;;2.15;1.10;;;;;;;10.56;55.06;91897.03;2071470;69;20166;-78
2024/03/24 10:50:53;;;;;;;1.63;1.00;;;;;;;12.02;54.22;91902.22;2071461;69;20164;-78
2024/03/24 10:53:21;;;;;;;3.55;0.80;;;;;;;10.37;52.72;91901.78;2071452;69;20170;-79
2024/03/24 10:55:49;;;;;;;3.45;1.90;;;;;;;12.45;51.95;91902.63;2071647;69;20160;-79
2024/03/24 10:58:18;;;;;;;3.17;2.13;;;;;;;13.70;49.51;91899.72;2071585;69;20183;-78
2024/03/24 11:00:45;;;;;;;4.43;2.17;;;;;;;12.00;50.13;91899.31;2071514;69;20152;-80
2024/03/24 11:03:12;;;;;;;4.35;2.25;;;;;;;12.41;51.20;91904.53;2071389;69;20148;-80
2024/03/24 11:05:39;;;;;;;2.70;1.75;;;;;;;11.62;51.21;91907.53;2071201;69;20145;-74
2024/03/24 11:08:06;;;;;;;2.33;1.90;;;;;;;11.05;53.47;91907.78;2071359;69;20155;-76
2024/03/24 11:10:33;;;;;;;4.53;1.80;;;;;;;10.69;52.06;91888.53;2068162;69;20244;-75
2024/03/24 11:12:59;;;;;;;2.47;1.60;;;;;;;9.74;52.10;91898.63;2071550;69;20158;-76
2024/03/24 11:15:25;;;;;;;2.33;1.60;;;;;;;11.60;51.67;91902.53;2068316;69;20209;-77
2024/03/24 11:17:51;;;;;;;2.65;1.90;;;;;;;12.93;49.56;91902.41;2071592;69;20148;-79
2024/03/24 11:20:20;;;;;;;1.83;1.33;;;;;;;14.32;45.04;91905.41;2071658;69;20172;-80
2024/03/24 11:22:48;;;;;;;2.20;1.10;;;;;;;15.74;41.59;91905.66;2071637;69;20616;-77
2024/03/24 11:25:20;;;;;;;1.17;0.90;;;;;;;14.18;42.56;91905.63;2071634;69;20164;-76
2024/03/24 11:27:46;;;;;;;3.58;1.23;;;;;;;14.76;42.01;91913.97;2071814;69;20156;-77
2024/03/24 11:30:16;;;;;;;1.95;1.20;;;;;;;15.14;41.02;91914.47;2071386;69;20512;-80
2024/03/24 11:32:52;;;;;;;4.10;1.98;;;;;;;16.02;41.38;91912.16;2071371;69;20144;-81
2024/03/24 11:35:28;;;;;;;3.08;1.50;;;;;;;14.95;42.49;91918.13;2071851;69;20228;-81
2024/03/24 11:37:56;;;;;;;1.88;1.15;;;;;;;16.93;40.42;91898.94;2071601;69;20132;-80
2024/03/24 11:40:25;;;;;;;3.90;2.78;;;;;;;18.86;36.09;91915.13;2071650;69;20197;-77
2024/03/24 11:42:52;;;;;;;2.40;1.88;;;;;;;19.82;36.98;91911.69;2068304;69;20223;-82
2024/03/24 11:45:28;;;;;;;0.98;0.70;;;;;;;22.27;33.05;91914.78;2071602;69;20218;-80
2024/03/24 11:48:24;;;;;;;1.50;1.13;;;;;;;18.12;35.99;91899.47;2071320;69;20136;-82
2024/03/24 11:50:50;;;;;;;1.38;1.00;;;;;;;17.60;35.54;91899.06;2074864;69;20166;-76
2024/03/24 11:53:18;;;;;;;3.58;2.20;;;;;;;20.39;35.15;91911.69;2074031;69;20168;-75
2024/03/24 11:55:44;;;;;;;1.55;1.10;;;;;;;15.37;38.78;91909.50;2068353;69;20172;-79
2024/03/24 11:58:10;;;;;;;2.33;1.38;;;;;;;13.44;41.36;91918.50;2071610;69;20657;-77
2024/03/24 12:00:35;;;;;;;1.60;1.30;;;;;;;12.70;43.28;91912.09;2071575;69;20686;-77
2024/03/24 12:03:01;;;;;;;1.33;1.08;;;;;;;12.20;41.58;91912.19;2071412;69;20512;-75
2024/03/24 12:05:27;;;;;;;1.50;0.90;;;;;;;12.02;41.64;91905.03;2067955;69;20294;-79
2024/03/24 12:07:56;;;;;;;0.98;0.50;;;;;;;10.35;42.62;91917.84;2071390;69;20155;-76
2024/03/24 12:10:21;;;;;;;1.45;0.85;;;;;;;11.61;42.99;91895.53;2071617;69;20152;-79
2024/03/24 12:12:47;;;;;;;1.08;0.70;;;;;;;13.24;41.08;91881.75;2071283;69;20168;-77